sensor_id;sensor_type;location;lat;lon;timestamp;P1;durP1;ratioP1;P2;durP2;ratioP2
47287;SDS011;33020;53.008;13.558;2023-02-27T00:00:09;1.97;;;1.30;;
47287;SDS011;33020;53.008;13.558;2023-02-27T00:02:41;1.73;;;1.20;;
47287;SDS011;33020;53.008;13.558;2023-02-27T00:05:09;1.80;;;1.00;;
47287;SDS011;33020;53.008;13.558;2023-02-27T00:07:36;2.40;;;1.10;;
47287;SDS011;33020;53.008;13.558;2023-02-27T00:10:03;2.23;;;1.20;;
47287;SDS011;33020;53.008;13.558;2023-02-27T00:12:31;2.90;;;1.17;;
47287;SDS011;33020;53.008;13.558;2023-02-27T00:15:04;3.20;;;1.47;;
47287;SDS011;33020;53.008;13.558;2023-02-27T00:17:31;1.80;;;1.30;;
47287;SDS011;33020;53.008;13.558;2023-02-27T00:19:58;2.83;;;1.30;;
47287;SDS011;33020;53.008;13.558;2023-02-27T00:22:25;2.10;;;1.30;;
47287;SDS011;33020;53.008;13.558;2023-02-27T00:24:52;2.43;;;1.20;;
47287;SDS011;33020;53.008;13.558;2023-02-27T00:27:19;1.73;;;1.13;;
47287;SDS011;33020;53.008;13.558;2023-02-27T00:29:47;1.80;;;1.27;;
47287;SDS011;33020;53.008;13.558;2023-02-27T00:32:18;1.60;;;1.20;;
47287;SDS011;33020;53.008;13.558;2023-02-27T00:34:45;1.83;;;1.17;;
47287;SDS011;33020;53.008;13.558;2023-02-27T00:37:12;2.10;;;1.40;;
47287;SDS011;33020;53.008;13.558;2023-02-27T00:39:38;3.63;;;1.50;;
47287;SDS011;33020;53.008;13.558;2023-02-27T00:42:05;2.97;;;1.20;;
47287;SDS011;33020;53.008;13.558;2023-02-27T00:44:32;1.97;;;1.27;;
47287;SDS011;33020;53.008;13.558;2023-02-27T00:46:59;2.97;;;1.57;;
47287;SDS011;33020;53.008;13.558;2023-02-27T00:49:25;1.83;;;1.20;;
47287;SDS011;33020;53.008;13.558;2023-02-27T00:51:52;3.57;;;1.47;;
47287;SDS011;33020;53.008;13.558;2023-02-27T00:54:19;2.27;;;1.33;;
47287;SDS011;33020;53.008;13.558;2023-02-27T00:56:45;4.47;;;1.40;;
47287;SDS011;33020;53.008;13.558;2023-02-27T00:59:12;2.53;;;1.60;;
47287;SDS011;33020;53.008;13.558;2023-02-27T01:01:39;2.17;;;1.27;;
47287;SDS011;33020;53.008;13.558;2023-02-27T01:04:06;3.57;;;1.33;;
47287;SDS011;33020;53.008;13.558;2023-02-27T01:06:33;2.17;;;1.67;;
47287;SDS011;33020;53.008;13.558;2023-02-27T01:09:00;2.37;;;1.50;;
47287;SDS011;33020;53.008;13.558;2023-02-27T01:11:29;3.77;;;1.30;;
47287;SDS011;33020;53.008;13.558;2023-02-27T01:13:56;2.10;;;1.30;;
47287;SDS011;33020;53.008;13.558;2023-02-27T01:16:23;2.33;;;1.30;;
47287;SDS011;33020;53.008;13.558;2023-02-27T01:18:52;2.77;;;1.50;;
47287;SDS011;33020;53.008;13.558;2023-02-27T01:21:19;3.27;;;1.50;;
47287;SDS011;33020;53.008;13.558;2023-02-27T01:23:47;2.40;;;1.50;;
47287;SDS011;33020;53.008;13.558;2023-02-27T01:26:14;2.47;;;1.37;;
47287;SDS011;33020;53.008;13.558;2023-02-27T01:28:41;3.20;;;1.60;;
47287;SDS011;33020;53.008;13.558;2023-02-27T01:31:07;2.93;;;1.30;;
47287;SDS011;33020;53.008;13.558;2023-02-27T01:33:34;2.57;;;1.60;;
47287;SDS011;33020;53.008;13.558;2023-02-27T01:36:01;4.00;;;1.63;;
47287;SDS011;33020;53.008;13.558;2023-02-27T01:38:28;3.37;;;1.43;;
47287;SDS011;33020;53.008;13.558;2023-02-27T01:40:55;3.57;;;1.73;;
47287;SDS011;33020;53.008;13.558;2023-02-27T01:43:26;3.03;;;1.30;;
47287;SDS011;33020;53.008;13.558;2023-02-27T01:45:53;5.27;;;2.40;;
47287;SDS011;33020;53.008;13.558;2023-02-27T01:48:28;3.70;;;1.67;;
47287;SDS011;33020;53.008;13.558;2023-02-27T01:50:58;2.73;;;1.43;;
47287;SDS011;33020;53.008;13.558;2023-02-27T01:53:29;2.60;;;1.40;;
47287;SDS011;33020;53.008;13.558;2023-02-27T01:55:57;3.70;;;1.70;;
47287;SDS011;33020;53.008;13.558;2023-02-27T01:58:28;1.93;;;1.30;;
47287;SDS011;33020;53.008;13.558;2023-02-27T02:00:55;2.70;;;1.50;;
47287;SDS011;33020;53.008;13.558;2023-02-27T02:06:03;3.07;;;1.63;;
47287;SDS011;33020;53.008;13.558;2023-02-27T02:08:33;4.97;;;1.83;;
47287;SDS011;33020;53.008;13.558;2023-02-27T02:11:02;2.30;;;1.50;;
47287;SDS011;33020;53.008;13.558;2023-02-27T02:13:31;3.00;;;1.60;;
47287;SDS011;33020;53.008;13.558;2023-02-27T02:27:35;4.57;;;1.50;;
47287;SDS011;33020;53.008;13.558;2023-02-27T02:41:13;2.47;;;1.37;;
47287;SDS011;33020;53.008;13.558;2023-02-27T02:49:38;3.47;;;1.83;;
47287;SDS011;33020;53.008;13.558;2023-02-27T02:52:20;3.10;;;1.43;;
47287;SDS011;33020;53.008;13.558;2023-02-27T02:55:00;2.60;;;1.40;;
47287;SDS011;33020;53.008;13.558;2023-02-27T02:57:36;1.80;;;1.20;;
47287;SDS011;33020;53.008;13.558;2023-02-27T03:00:14;2.67;;;1.20;;
47287;SDS011;33020;53.008;13.558;2023-02-27T03:02:44;3.28;;;1.42;;
47287;SDS011;33020;53.008;13.558;2023-02-27T03:05:15;2.20;;;1.10;;
47287;SDS011;33020;53.008;13.558;2023-02-27T03:07:46;1.43;;;1.10;;
47287;SDS011;33020;53.008;13.558;2023-02-27T03:10:29;2.67;;;1.57;;
47287;SDS011;33020;53.008;13.558;2023-02-27T03:13:12;3.83;;;1.50;;
47287;SDS011;33020;53.008;13.558;2023-02-27T03:15:44;1.73;;;1.20;;
47287;SDS011;33020;53.008;13.558;2023-02-27T03:18:20;4.40;;;1.37;;
47287;SDS011;33020;53.008;13.558;2023-02-27T03:20:57;1.97;;;1.10;;
47287;SDS011;33020;53.008;13.558;2023-02-27T03:23:29;2.87;;;1.30;;
47287;SDS011;33020;53.008;13.558;2023-02-27T03:26:03;1.73;;;1.40;;
47287;SDS011;33020;53.008;13.558;2023-02-27T03:28:31;2.00;;;1.40;;
47287;SDS011;33020;53.008;13.558;2023-02-27T03:31:16;2.13;;;1.27;;
47287;SDS011;33020;53.008;13.558;2023-02-27T03:33:55;1.83;;;1.13;;
47287;SDS011;33020;53.008;13.558;2023-02-27T03:36:44;2.40;;;1.00;;
47287;SDS011;33020;53.008;13.558;2023-02-27T03:47:32;1.90;;;1.10;;
47287;SDS011;33020;53.008;13.558;2023-02-27T03:49:59;3.57;;;1.20;;
47287;SDS011;33020;53.008;13.558;2023-02-27T03:52:26;2.37;;;1.30;;
47287;SDS011;33020;53.008;13.558;2023-02-27T03:55:05;2.27;;;1.60;;
47287;SDS011;33020;53.008;13.558;2023-02-27T03:57:35;1.77;;;1.20;;
47287;SDS011;33020;53.008;13.558;2023-02-27T04:00:03;2.27;;;1.37;;
47287;SDS011;33020;53.008;13.558;2023-02-27T04:02:31;2.40;;;1.27;;
47287;SDS011;33020;53.008;13.558;2023-02-27T04:04:58;1.37;;;1.10;;
47287;SDS011;33020;53.008;13.558;2023-02-27T04:07:28;2.43;;;1.50;;
47287;SDS011;33020;53.008;13.558;2023-02-27T04:10:18;4.00;;;1.43;;
47287;SDS011;33020;53.008;13.558;2023-02-27T04:15:32;1.40;;;1.30;;
47287;SDS011;33020;53.008;13.558;2023-02-27T04:18:16;1.45;;;1.13;;
47287;SDS011;33020;53.008;13.558;2023-02-27T04:20:45;1.93;;;1.20;;
47287;SDS011;33020;53.008;13.558;2023-02-27T04:23:20;2.13;;;1.23;;
47287;SDS011;33020;53.008;13.558;2023-02-27T04:29:02;1.73;;;1.00;;
47287;SDS011;33020;53.008;13.558;2023-02-27T04:34:04;2.27;;;1.00;;
47287;SDS011;33020;53.008;13.558;2023-02-27T04:36:40;4.13;;;1.30;;
47287;SDS011;33020;53.008;13.558;2023-02-27T04:39:13;3.27;;;1.40;;
47287;SDS011;33020;53.008;13.558;2023-02-27T04:41:53;3.37;;;1.27;;
47287;SDS011;33020;53.008;13.558;2023-02-27T04:44:23;3.13;;;1.27;;
47287;SDS011;33020;53.008;13.558;2023-02-27T04:46:50;4.37;;;1.70;;
47287;SDS011;33020;53.008;13.558;2023-02-27T04:49:28;1.93;;;1.40;;
47287;SDS011;33020;53.008;13.558;2023-02-27T04:57:35;2.63;;;1.33;;
47287;SDS011;33020;53.008;13.558;2023-02-27T05:00:07;2.20;;;1.33;;
47287;SDS011;33020;53.008;13.558;2023-02-27T05:02:38;2.13;;;1.27;;
47287;SDS011;33020;53.008;13.558;2023-02-27T05:05:09;3.63;;;1.30;;
47287;SDS011;33020;53.008;13.558;2023-02-27T05:07:41;3.30;;;1.47;;
47287;SDS011;33020;53.008;13.558;2023-02-27T05:10:14;2.33;;;1.23;;
47287;SDS011;33020;53.008;13.558;2023-02-27T05:12:48;2.03;;;1.17;;
47287;SDS011;33020;53.008;13.558;2023-02-27T05:15:20;1.77;;;1.33;;
47287;SDS011;33020;53.008;13.558;2023-02-27T05:17:59;1.80;;;1.20;;
47287;SDS011;33020;53.008;13.558;2023-02-27T05:21:18;2.17;;;1.10;;
47287;SDS011;33020;53.008;13.558;2023-02-27T05:23:41;1.97;;;0.90;;
47287;SDS011;33020;53.008;13.558;2023-02-27T05:26:18;4.10;;;1.30;;
47287;SDS011;33020;53.008;13.558;2023-02-27T05:29:00;3.03;;;1.30;;
47287;SDS011;33020;53.008;13.558;2023-02-27T05:31:33;2.33;;;1.20;;
47287;SDS011;33020;53.008;13.558;2023-02-27T05:34:09;3.80;;;1.20;;
47287;SDS011;33020;53.008;13.558;2023-02-27T05:36:41;3.10;;;1.50;;
47287;SDS011;33020;53.008;13.558;2023-02-27T05:39:22;2.40;;;1.37;;
47287;SDS011;33020;53.008;13.558;2023-02-27T05:41:57;1.10;;;1.00;;
47287;SDS011;33020;53.008;13.558;2023-02-27T05:44:36;1.88;;;1.30;;
47287;SDS011;33020;53.008;13.558;2023-02-27T05:47:09;1.73;;;1.23;;
47287;SDS011;33020;53.008;13.558;2023-02-27T05:49:40;1.53;;;0.90;;
47287;SDS011;33020;53.008;13.558;2023-02-27T05:52:09;2.27;;;1.27;;
47287;SDS011;33020;53.008;13.558;2023-02-27T05:54:43;2.87;;;1.40;;
47287;SDS011;33020;53.008;13.558;2023-02-27T05:57:15;2.20;;;1.30;;
47287;SDS011;33020;53.008;13.558;2023-02-27T05:59:48;2.80;;;1.43;;
47287;SDS011;33020;53.008;13.558;2023-02-27T06:02:18;3.63;;;1.23;;
47287;SDS011;33020;53.008;13.558;2023-02-27T06:04:44;2.27;;;1.30;;
47287;SDS011;33020;53.008;13.558;2023-02-27T06:07:14;1.93;;;1.20;;
47287;SDS011;33020;53.008;13.558;2023-02-27T06:09:41;2.27;;;1.43;;
47287;SDS011;33020;53.008;13.558;2023-02-27T06:12:09;2.30;;;1.20;;
47287;SDS011;33020;53.008;13.558;2023-02-27T06:14:35;1.80;;;1.17;;
47287;SDS011;33020;53.008;13.558;2023-02-27T06:17:02;3.53;;;1.63;;
47287;SDS011;33020;53.008;13.558;2023-02-27T06:19:29;2.60;;;1.23;;
47287;SDS011;33020;53.008;13.558;2023-02-27T06:21:55;2.10;;;1.40;;
47287;SDS011;33020;53.008;13.558;2023-02-27T06:24:22;1.30;;;1.20;;
47287;SDS011;33020;53.008;13.558;2023-02-27T06:26:48;2.70;;;1.50;;
47287;SDS011;33020;53.008;13.558;2023-02-27T06:29:15;3.90;;;1.60;;
47287;SDS011;33020;53.008;13.558;2023-02-27T06:31:42;3.60;;;1.60;;
47287;SDS011;33020;53.008;13.558;2023-02-27T06:34:09;1.67;;;1.23;;
47287;SDS011;33020;53.008;13.558;2023-02-27T06:36:36;1.97;;;1.20;;
47287;SDS011;33020;53.008;13.558;2023-02-27T06:39:02;3.33;;;1.40;;
47287;SDS011;33020;53.008;13.558;2023-02-27T06:41:30;1.77;;;1.20;;
47287;SDS011;33020;53.008;13.558;2023-02-27T06:43:56;4.07;;;1.40;;
47287;SDS011;33020;53.008;13.558;2023-02-27T06:46:23;1.70;;;1.20;;
47287;SDS011;33020;53.008;13.558;2023-02-27T06:48:50;2.47;;;1.70;;
47287;SDS011;33020;53.008;13.558;2023-02-27T06:51:17;3.10;;;1.20;;
47287;SDS011;33020;53.008;13.558;2023-02-27T06:53:44;4.10;;;2.10;;
47287;SDS011;33020;53.008;13.558;2023-02-27T06:56:10;2.57;;;1.50;;
47287;SDS011;33020;53.008;13.558;2023-02-27T06:58:37;3.93;;;1.33;;
47287;SDS011;33020;53.008;13.558;2023-02-27T07:01:03;2.53;;;1.63;;
47287;SDS011;33020;53.008;13.558;2023-02-27T07:03:30;4.63;;;1.80;;
47287;SDS011;33020;53.008;13.558;2023-02-27T07:05:57;3.63;;;1.97;;
47287;SDS011;33020;53.008;13.558;2023-02-27T07:08:24;5.03;;;2.40;;
47287;SDS011;33020;53.008;13.558;2023-02-27T07:10:51;6.00;;;2.60;;
47287;SDS011;33020;53.008;13.558;2023-02-27T07:13:18;5.57;;;2.77;;
47287;SDS011;33020;53.008;13.558;2023-02-27T07:15:45;6.67;;;2.37;;
47287;SDS011;33020;53.008;13.558;2023-02-27T07:18:12;5.07;;;2.60;;
47287;SDS011;33020;53.008;13.558;2023-02-27T07:20:39;8.53;;;3.73;;
47287;SDS011;33020;53.008;13.558;2023-02-27T07:23:05;10.73;;;5.57;;
47287;SDS011;33020;53.008;13.558;2023-02-27T07:25:32;38.57;;;20.67;;
47287;SDS011;33020;53.008;13.558;2023-02-27T07:27:59;31.87;;;14.10;;
47287;SDS011;33020;53.008;13.558;2023-02-27T07:30:26;18.70;;;9.83;;
47287;SDS011;33020;53.008;13.558;2023-02-27T07:32:52;14.97;;;9.53;;
47287;SDS011;33020;53.008;13.558;2023-02-27T07:35:19;22.70;;;15.73;;
47287;SDS011;33020;53.008;13.558;2023-02-27T07:37:46;17.53;;;14.33;;
47287;SDS011;33020;53.008;13.558;2023-02-27T07:40:13;11.60;;;9.00;;
47287;SDS011;33020;53.008;13.558;2023-02-27T07:42:40;6.77;;;3.60;;
47287;SDS011;33020;53.008;13.558;2023-02-27T07:45:07;3.10;;;2.53;;
47287;SDS011;33020;53.008;13.558;2023-02-27T07:47:34;5.97;;;3.67;;
47287;SDS011;33020;53.008;13.558;2023-02-27T07:50:01;9.70;;;4.47;;
47287;SDS011;33020;53.008;13.558;2023-02-27T07:52:29;6.73;;;4.40;;
47287;SDS011;33020;53.008;13.558;2023-02-27T07:54:57;5.87;;;2.77;;
47287;SDS011;33020;53.008;13.558;2023-02-27T07:57:24;7.03;;;2.87;;
47287;SDS011;33020;53.008;13.558;2023-02-27T07:59:50;4.67;;;2.40;;
47287;SDS011;33020;53.008;13.558;2023-02-27T08:02:17;4.50;;;2.63;;
47287;SDS011;33020;53.008;13.558;2023-02-27T08:04:44;8.33;;;4.03;;
47287;SDS011;33020;53.008;13.558;2023-02-27T08:07:11;6.47;;;4.47;;
47287;SDS011;33020;53.008;13.558;2023-02-27T08:09:37;7.17;;;3.70;;
47287;SDS011;33020;53.008;13.558;2023-02-27T08:12:04;6.20;;;4.33;;
47287;SDS011;33020;53.008;13.558;2023-02-27T08:14:31;6.37;;;4.20;;
47287;SDS011;33020;53.008;13.558;2023-02-27T08:16:57;6.83;;;4.07;;
47287;SDS011;33020;53.008;13.558;2023-02-27T08:19:25;5.33;;;3.77;;
47287;SDS011;33020;53.008;13.558;2023-02-27T08:21:52;7.40;;;3.57;;
47287;SDS011;33020;53.008;13.558;2023-02-27T08:24:19;7.50;;;3.83;;
47287;SDS011;33020;53.008;13.558;2023-02-27T08:26:46;6.03;;;3.53;;
47287;SDS011;33020;53.008;13.558;2023-02-27T08:29:12;5.97;;;3.50;;
47287;SDS011;33020;53.008;13.558;2023-02-27T08:31:42;5.37;;;3.93;;
47287;SDS011;33020;53.008;13.558;2023-02-27T08:34:09;5.23;;;3.63;;
47287;SDS011;33020;53.008;13.558;2023-02-27T08:36:36;5.97;;;3.70;;
47287;SDS011;33020;53.008;13.558;2023-02-27T08:39:03;5.60;;;3.70;;
47287;SDS011;33020;53.008;13.558;2023-02-27T08:41:31;4.93;;;3.50;;
47287;SDS011;33020;53.008;13.558;2023-02-27T08:43:57;7.23;;;4.50;;
47287;SDS011;33020;53.008;13.558;2023-02-27T08:46:24;8.50;;;4.83;;
47287;SDS011;33020;53.008;13.558;2023-02-27T08:48:52;13.27;;;6.43;;
47287;SDS011;33020;53.008;13.558;2023-02-27T08:51:20;11.37;;;7.13;;
47287;SDS011;33020;53.008;13.558;2023-02-27T08:53:46;9.07;;;5.77;;
47287;SDS011;33020;53.008;13.558;2023-02-27T08:56:13;8.97;;;3.63;;
47287;SDS011;33020;53.008;13.558;2023-02-27T08:58:40;7.57;;;3.10;;
47287;SDS011;33020;53.008;13.558;2023-02-27T09:01:06;7.37;;;3.70;;
47287;SDS011;33020;53.008;13.558;2023-02-27T09:03:33;9.00;;;3.10;;
47287;SDS011;33020;53.008;13.558;2023-02-27T09:06:00;6.17;;;3.70;;
47287;SDS011;33020;53.008;13.558;2023-02-27T09:08:26;7.37;;;3.37;;
47287;SDS011;33020;53.008;13.558;2023-02-27T09:10:56;5.53;;;3.33;;
47287;SDS011;33020;53.008;13.558;2023-02-27T09:13:23;6.83;;;3.03;;
47287;SDS011;33020;53.008;13.558;2023-02-27T09:15:50;5.73;;;3.20;;
47287;SDS011;33020;53.008;13.558;2023-02-27T09:18:16;6.17;;;3.70;;
47287;SDS011;33020;53.008;13.558;2023-02-27T09:20:43;7.03;;;4.60;;
47287;SDS011;33020;53.008;13.558;2023-02-27T09:23:10;7.37;;;4.10;;
47287;SDS011;33020;53.008;13.558;2023-02-27T09:25:36;6.37;;;3.13;;
47287;SDS011;33020;53.008;13.558;2023-02-27T09:28:03;5.47;;;3.90;;
47287;SDS011;33020;53.008;13.558;2023-02-27T09:30:30;5.90;;;3.23;;
47287;SDS011;33020;53.008;13.558;2023-02-27T09:32:57;7.07;;;3.43;;
47287;SDS011;33020;53.008;13.558;2023-02-27T09:35:23;8.67;;;4.00;;
47287;SDS011;33020;53.008;13.558;2023-02-27T09:37:50;4.57;;;3.30;;
47287;SDS011;33020;53.008;13.558;2023-02-27T09:40:25;7.47;;;3.70;;
47287;SDS011;33020;53.008;13.558;2023-02-27T09:42:57;4.57;;;3.10;;
47287;SDS011;33020;53.008;13.558;2023-02-27T09:45:27;4.37;;;3.30;;
47287;SDS011;33020;53.008;13.558;2023-02-27T09:48:40;6.47;;;3.37;;
47287;SDS011;33020;53.008;13.558;2023-02-27T09:50:55;5.80;;;3.07;;
47287;SDS011;33020;53.008;13.558;2023-02-27T09:53:28;5.90;;;3.17;;
47287;SDS011;33020;53.008;13.558;2023-02-27T10:08:08;4.90;;;2.80;;
47287;SDS011;33020;53.008;13.558;2023-02-27T10:10:48;6.70;;;2.80;;
47287;SDS011;33020;53.008;13.558;2023-02-27T10:13:37;4.70;;;2.90;;
47287;SDS011;33020;53.008;13.558;2023-02-27T10:16:09;4.23;;;2.37;;
47287;SDS011;33020;53.008;13.558;2023-02-27T10:18:50;3.67;;;2.47;;
47287;SDS011;33020;53.008;13.558;2023-02-27T10:21:21;3.40;;;2.30;;
47287;SDS011;33020;53.008;13.558;2023-02-27T10:23:58;3.90;;;2.30;;
47287;SDS011;33020;53.008;13.558;2023-02-27T10:26:38;7.07;;;2.53;;
47287;SDS011;33020;53.008;13.558;2023-02-27T10:29:16;3.27;;;2.33;;
47287;SDS011;33020;53.008;13.558;2023-02-27T10:31:55;6.50;;;3.10;;
47287;SDS011;33020;53.008;13.558;2023-02-27T10:34:27;4.97;;;2.47;;
47287;SDS011;33020;53.008;13.558;2023-02-27T10:36:55;5.93;;;2.43;;
47287;SDS011;33020;53.008;13.558;2023-02-27T10:39:24;6.47;;;2.30;;
47287;SDS011;33020;53.008;13.558;2023-02-27T10:41:51;5.43;;;2.80;;
47287;SDS011;33020;53.008;13.558;2023-02-27T10:44:18;4.73;;;2.30;;
47287;SDS011;33020;53.008;13.558;2023-02-27T10:46:45;4.40;;;2.57;;
47287;SDS011;33020;53.008;13.558;2023-02-27T10:49:20;4.73;;;2.60;;
47287;SDS011;33020;53.008;13.558;2023-02-27T10:54:38;3.23;;;1.73;;
47287;SDS011;33020;53.008;13.558;2023-02-27T10:57:06;3.57;;;2.10;;
47287;SDS011;33020;53.008;13.558;2023-02-27T10:59:56;4.17;;;1.50;;
47287;SDS011;33020;53.008;13.558;2023-02-27T11:02:25;1.77;;;1.20;;
47287;SDS011;33020;53.008;13.558;2023-02-27T11:04:57;2.50;;;1.30;;
47287;SDS011;33020;53.008;13.558;2023-02-27T11:07:26;3.03;;;1.63;;
47287;SDS011;33020;53.008;13.558;2023-02-27T11:10:14;1.93;;;1.10;;
47287;SDS011;33020;53.008;13.558;2023-02-27T11:13:10;1.53;;;1.03;;
47287;SDS011;33020;53.008;13.558;2023-02-27T11:16:00;2.77;;;1.20;;
47287;SDS011;33020;53.008;13.558;2023-02-27T11:18:30;1.67;;;1.10;;
47287;SDS011;33020;53.008;13.558;2023-02-27T11:23:49;1.90;;;1.40;;
47287;SDS011;33020;53.008;13.558;2023-02-27T11:29:23;2.40;;;0.90;;
47287;SDS011;33020;53.008;13.558;2023-02-27T11:34:22;1.93;;;1.20;;
47287;SDS011;33020;53.008;13.558;2023-02-27T11:36:53;1.10;;;0.73;;
47287;SDS011;33020;53.008;13.558;2023-02-27T11:42:28;1.45;;;0.75;;
47287;SDS011;33020;53.008;13.558;2023-02-27T11:44:58;1.47;;;1.00;;
47287;SDS011;33020;53.008;13.558;2023-02-27T11:47:31;2.13;;;1.80;;
47287;SDS011;33020;53.008;13.558;2023-02-27T11:52:38;1.70;;;1.43;;
47287;SDS011;33020;53.008;13.558;2023-02-27T11:55:28;1.83;;;1.00;;
47287;SDS011;33020;53.008;13.558;2023-02-27T11:58:00;1.60;;;1.00;;
47287;SDS011;33020;53.008;13.558;2023-02-27T12:00:32;1.10;;;0.67;;
47287;SDS011;33020;53.008;13.558;2023-02-27T12:03:24;1.40;;;0.93;;
47287;SDS011;33020;53.008;13.558;2023-02-27T12:06:16;1.43;;;0.90;;
47287;SDS011;33020;53.008;13.558;2023-02-27T12:11:21;2.03;;;0.90;;
47287;SDS011;33020;53.008;13.558;2023-02-27T12:13:57;2.00;;;1.00;;
47287;SDS011;33020;53.008;13.558;2023-02-27T12:16:42;1.37;;;0.80;;
47287;SDS011;33020;53.008;13.558;2023-02-27T12:19:20;1.23;;;0.80;;
47287;SDS011;33020;53.008;13.558;2023-02-27T12:22:36;1.43;;;0.90;;
47287;SDS011;33020;53.008;13.558;2023-02-27T12:24:56;1.67;;;0.80;;
47287;SDS011;33020;53.008;13.558;2023-02-27T12:27:39;1.23;;;0.80;;
47287;SDS011;33020;53.008;13.558;2023-02-27T12:30:12;0.97;;;0.73;;
47287;SDS011;33020;53.008;13.558;2023-02-27T12:37:52;1.43;;;0.60;;
47287;SDS011;33020;53.008;13.558;2023-02-27T12:40:20;0.90;;;0.70;;
47287;SDS011;33020;53.008;13.558;2023-02-27T12:46:14;0.83;;;0.50;;
47287;SDS011;33020;53.008;13.558;2023-02-27T12:54:30;1.70;;;1.00;;
47287;SDS011;33020;53.008;13.558;2023-02-27T12:57:23;1.43;;;0.60;;
47287;SDS011;33020;53.008;13.558;2023-02-27T12:59:59;1.10;;;0.70;;
47287;SDS011;33020;53.008;13.558;2023-02-27T13:05:13;1.83;;;0.90;;
47287;SDS011;33020;53.008;13.558;2023-02-27T13:07:55;1.63;;;0.70;;
47287;SDS011;33020;53.008;13.558;2023-02-27T13:13:02;1.00;;;0.70;;
47287;SDS011;33020;53.008;13.558;2023-02-27T13:15:38;2.30;;;1.10;;
47287;SDS011;33020;53.008;13.558;2023-02-27T13:21:02;2.07;;;1.33;;
47287;SDS011;33020;53.008;13.558;2023-02-27T13:27:06;0.82;;;0.60;;
47287;SDS011;33020;53.008;13.558;2023-02-27T13:32:11;0.70;;;0.70;;
47287;SDS011;33020;53.008;13.558;2023-02-27T13:35:16;0.90;;;0.60;;
47287;SDS011;33020;53.008;13.558;2023-02-27T13:40:35;1.03;;;0.60;;
47287;SDS011;33020;53.008;13.558;2023-02-27T13:43:26;0.80;;;0.80;;
47287;SDS011;33020;53.008;13.558;2023-02-27T13:45:59;0.43;;;0.40;;
47287;SDS011;33020;53.008;13.558;2023-02-27T13:51:08;1.23;;;0.40;;
47287;SDS011;33020;53.008;13.558;2023-02-27T13:53:36;0.50;;;0.40;;
47287;SDS011;33020;53.008;13.558;2023-02-27T13:56:20;0.57;;;0.50;;
47287;SDS011;33020;53.008;13.558;2023-02-27T13:58:48;1.60;;;0.50;;
47287;SDS011;33020;53.008;13.558;2023-02-27T14:01:17;1.87;;;0.40;;
47287;SDS011;33020;53.008;13.558;2023-02-27T14:03:53;1.10;;;0.67;;
47287;SDS011;33020;53.008;13.558;2023-02-27T14:06:22;0.70;;;0.50;;
47287;SDS011;33020;53.008;13.558;2023-02-27T14:08:50;0.63;;;0.40;;
47287;SDS011;33020;53.008;13.558;2023-02-27T14:11:29;0.87;;;0.60;;
47287;SDS011;33020;53.008;13.558;2023-02-27T14:14:00;0.90;;;0.50;;
47287;SDS011;33020;53.008;13.558;2023-02-27T14:21:48;0.50;;;0.50;;
47287;SDS011;33020;53.008;13.558;2023-02-27T14:24:16;0.60;;;0.43;;
47287;SDS011;33020;53.008;13.558;2023-02-27T14:26:44;1.40;;;0.53;;
47287;SDS011;33020;53.008;13.558;2023-02-27T14:29:19;1.13;;;0.60;;
47287;SDS011;33020;53.008;13.558;2023-02-27T14:31:49;0.37;;;0.37;;
47287;SDS011;33020;53.008;13.558;2023-02-27T14:34:19;0.43;;;0.40;;
47287;SDS011;33020;53.008;13.558;2023-02-27T14:36:50;0.40;;;0.40;;
47287;SDS011;33020;53.008;13.558;2023-02-27T14:39:24;1.70;;;0.73;;
47287;SDS011;33020;53.008;13.558;2023-02-27T14:44:39;0.73;;;0.60;;
47287;SDS011;33020;53.008;13.558;2023-02-27T14:47:13;0.93;;;0.60;;
47287;SDS011;33020;53.008;13.558;2023-02-27T14:49:44;0.30;;;0.30;;
47287;SDS011;33020;53.008;13.558;2023-02-27T14:52:16;0.40;;;0.40;;
47287;SDS011;33020;53.008;13.558;2023-02-27T14:54:46;0.43;;;0.40;;
47287;SDS011;33020;53.008;13.558;2023-02-27T14:57:15;0.57;;;0.40;;
47287;SDS011;33020;53.008;13.558;2023-02-27T14:59:52;0.83;;;0.40;;
47287;SDS011;33020;53.008;13.558;2023-02-27T15:05:33;0.57;;;0.40;;
47287;SDS011;33020;53.008;13.558;2023-02-27T15:07:43;0.60;;;0.43;;
47287;SDS011;33020;53.008;13.558;2023-02-27T15:10:16;1.07;;;0.40;;
47287;SDS011;33020;53.008;13.558;2023-02-27T15:12:50;1.33;;;0.70;;
47287;SDS011;33020;53.008;13.558;2023-02-27T15:15:18;2.30;;;0.47;;
47287;SDS011;33020;53.008;13.558;2023-02-27T15:17:46;0.77;;;0.40;;
47287;SDS011;33020;53.008;13.558;2023-02-27T15:20:24;0.60;;;0.50;;
47287;SDS011;33020;53.008;13.558;2023-02-27T15:22:59;0.40;;;0.40;;
47287;SDS011;33020;53.008;13.558;2023-02-27T15:25:33;1.37;;;0.43;;
47287;SDS011;33020;53.008;13.558;2023-02-27T15:28:07;0.63;;;0.40;;
47287;SDS011;33020;53.008;13.558;2023-02-27T15:30:49;0.60;;;0.47;;
47287;SDS011;33020;53.008;13.558;2023-02-27T15:33:17;0.63;;;0.40;;
47287;SDS011;33020;53.008;13.558;2023-02-27T15:35:44;1.50;;;0.60;;
47287;SDS011;33020;53.008;13.558;2023-02-27T15:41:01;0.80;;;0.30;;
47287;SDS011;33020;53.008;13.558;2023-02-27T15:43:28;0.53;;;0.40;;
47287;SDS011;33020;53.008;13.558;2023-02-27T15:45:55;1.67;;;0.60;;
47287;SDS011;33020;53.008;13.558;2023-02-27T15:48:23;1.03;;;0.40;;
47287;SDS011;33020;53.008;13.558;2023-02-27T15:50:55;0.70;;;0.30;;
47287;SDS011;33020;53.008;13.558;2023-02-27T15:53:27;0.90;;;0.40;;
47287;SDS011;33020;53.008;13.558;2023-02-27T15:55:56;2.27;;;0.30;;
47287;SDS011;33020;53.008;13.558;2023-02-27T15:58:25;2.57;;;0.60;;
47287;SDS011;33020;53.008;13.558;2023-02-27T16:00:56;0.70;;;0.43;;
47287;SDS011;33020;53.008;13.558;2023-02-27T16:03:27;2.63;;;0.87;;
47287;SDS011;33020;53.008;13.558;2023-02-27T16:05:58;0.43;;;0.30;;
47287;SDS011;33020;53.008;13.558;2023-02-27T16:08:25;0.60;;;0.50;;
47287;SDS011;33020;53.008;13.558;2023-02-27T16:10:53;0.60;;;0.40;;
47287;SDS011;33020;53.008;13.558;2023-02-27T16:13:21;0.47;;;0.30;;
47287;SDS011;33020;53.008;13.558;2023-02-27T16:15:57;0.57;;;0.40;;
47287;SDS011;33020;53.008;13.558;2023-02-27T16:18:28;1.30;;;0.37;;
47287;SDS011;33020;53.008;13.558;2023-02-27T16:21:06;0.83;;;0.50;;
47287;SDS011;33020;53.008;13.558;2023-02-27T16:23:41;0.60;;;0.50;;
47287;SDS011;33020;53.008;13.558;2023-02-27T16:26:17;1.17;;;0.40;;
47287;SDS011;33020;53.008;13.558;2023-02-27T16:28:59;0.50;;;0.40;;
47287;SDS011;33020;53.008;13.558;2023-02-27T16:31:32;0.77;;;0.50;;
47287;SDS011;33020;53.008;13.558;2023-02-27T16:37:21;1.37;;;0.60;;
47287;SDS011;33020;53.008;13.558;2023-02-27T16:39:49;0.80;;;0.50;;
47287;SDS011;33020;53.008;13.558;2023-02-27T16:42:17;1.23;;;0.70;;
47287;SDS011;33020;53.008;13.558;2023-02-27T16:44:44;1.23;;;0.90;;
47287;SDS011;33020;53.008;13.558;2023-02-27T16:47:10;1.33;;;0.97;;
47287;SDS011;33020;53.008;13.558;2023-02-27T16:49:37;0.90;;;0.70;;
47287;SDS011;33020;53.008;13.558;2023-02-27T16:52:09;0.77;;;0.60;;
47287;SDS011;33020;53.008;13.558;2023-02-27T16:54:36;1.07;;;0.80;;
47287;SDS011;33020;53.008;13.558;2023-02-27T16:57:03;0.57;;;0.50;;
47287;SDS011;33020;53.008;13.558;2023-02-27T16:59:34;1.23;;;0.87;;
47287;SDS011;33020;53.008;13.558;2023-02-27T17:02:02;1.97;;;1.30;;
47287;SDS011;33020;53.008;13.558;2023-02-27T17:04:30;3.43;;;1.57;;
47287;SDS011;33020;53.008;13.558;2023-02-27T17:06:58;2.90;;;1.60;;
47287;SDS011;33020;53.008;13.558;2023-02-27T17:09:26;3.27;;;1.60;;
47287;SDS011;33020;53.008;13.558;2023-02-27T17:11:53;2.13;;;1.43;;